sensor_id;sensor_type;location;lat;lon;timestamp;temperature;humidity
13742;DHT22;8461;52.356;10.704;2022-10-16T00:01:29;14.30;99.90
13742;DHT22;8461;52.356;10.704;2022-10-16T00:03:56;14.30;99.90
13742;DHT22;8461;52.356;10.704;2022-10-16T00:06:22;14.30;99.90
13742;DHT22;8461;52.356;10.704;2022-10-16T00:08:49;14.30;99.90
13742;DHT22;8461;52.356;10.704;2022-10-16T00:11:21;14.20;99.90
13742;DHT22;8461;52.356;10.704;2022-10-16T00:13:49;14.20;99.90
13742;DHT22;8461;52.356;10.704;2022-10-16T00:16:15;14.10;99.90
13742;DHT22;8461;52.356;10.704;2022-10-16T00:18:41;14.10;99.90
13742;DHT22;8461;52.356;10.704;2022-10-16T00:21:13;14.10;99.90
13742;DHT22;8461;52.356;10.704;2022-10-16T00:23:39;14.00;99.90
13742;DHT22;8461;52.356;10.704;2022-10-16T00:26:07;14.00;99.90
13742;DHT22;8461;52.356;10.704;2022-10-16T00:28:33;14.00;99.90
13742;DHT22;8461;52.356;10.704;2022-10-16T00:30:59;13.90;99.90
13742;DHT22;8461;52.356;10.704;2022-10-16T00:33:27;13.90;99.90
13742;DHT22;8461;52.356;10.704;2022-10-16T00:35:52;13.80;99.90
13742;DHT22;8461;52.356;10.704;2022-10-16T00:38:18;13.70;99.90
13742;DHT22;8461;52.356;10.704;2022-10-16T00:40:43;13.60;99.90
13742;DHT22;8461;52.356;10.704;2022-10-16T00:43:13;13.50;99.90
13742;DHT22;8461;52.356;10.704;2022-10-16T00:45:39;13.40;99.90
13742;DHT22;8461;52.356;10.704;2022-10-16T00:48:11;13.40;99.90
13742;DHT22;8461;52.356;10.704;2022-10-16T00:50:37;13.30;99.90
13742;DHT22;8461;52.356;10.704;2022-10-16T00:53:04;13.30;99.90
13742;DHT22;8461;52.356;10.704;2022-10-16T00:55:30;13.20;99.90
13742;DHT22;8461;52.356;10.704;2022-10-16T00:57:56;13.20;99.90
13742;DHT22;8461;52.356;10.704;2022-10-16T01:00:25;13.20;99.90
13742;DHT22;8461;52.356;10.704;2022-10-16T01:02:55;13.30;99.90
13742;DHT22;8461;52.356;10.704;2022-10-16T01:05:23;13.20;99.90
13742;DHT22;8461;52.356;10.704;2022-10-16T01:08:08;13.30;99.90
13742;DHT22;8461;52.356;10.704;2022-10-16T01:10:51;13.30;99.90
13742;DHT22;8461;52.356;10.704;2022-10-16T01:13:32;13.20;99.90
13742;DHT22;8461;52.356;10.704;2022-10-16T01:16:07;13.30;99.90
13742;DHT22;8461;52.356;10.704;2022-10-16T01:18:37;13.30;99.90
13742;DHT22;8461;52.356;10.704;2022-10-16T01:21:07;13.40;99.90
13742;DHT22;8461;52.356;10.704;2022-10-16T01:23:38;13.30;99.90
13742;DHT22;8461;52.356;10.704;2022-10-16T01:26:44;13.30;99.90
13742;DHT22;8461;52.356;10.704;2022-10-16T01:29:32;13.20;99.90
13742;DHT22;8461;52.356;10.704;2022-10-16T01:32:05;13.20;99.90
13742;DHT22;8461;52.356;10.704;2022-10-16T01:34:42;13.10;99.90
13742;DHT22;8461;52.356;10.704;2022-10-16T01:37:14;13.10;99.90
13742;DHT22;8461;52.356;10.704;2022-10-16T01:39:42;13.10;99.90
13742;DHT22;8461;52.356;10.704;2022-10-16T01:42:20;13.10;99.90
13742;DHT22;8461;52.356;10.704;2022-10-16T01:44:48;13.00;99.90
13742;DHT22;8461;52.356;10.704;2022-10-16T01:47:15;13.00;99.90
13742;DHT22;8461;52.356;10.704;2022-10-16T01:49:43;13.00;99.90
13742;DHT22;8461;52.356;10.704;2022-10-16T01:52:14;13.00;99.90
13742;DHT22;8461;52.356;10.704;2022-10-16T01:54:43;13.00;99.90
13742;DHT22;8461;52.356;10.704;2022-10-16T01:57:12;12.90;99.90
13742;DHT22;8461;52.356;10.704;2022-10-16T01:59:43;12.90;99.90
13742;DHT22;8461;52.356;10.704;2022-10-16T02:02:10;12.90;99.90
13742;DHT22;8461;52.356;10.704;2022-10-16T02:04:46;12.90;99.90
13742;DHT22;8461;52.356;10.704;2022-10-16T02:07:12;12.90;99.90
13742;DHT22;8461;52.356;10.704;2022-10-16T02:09:39;12.90;99.90
13742;DHT22;8461;52.356;10.704;2022-10-16T02:12:15;12.90;99.90
13742;DHT22;8461;52.356;10.704;2022-10-16T02:14:44;12.90;99.90
13742;DHT22;8461;52.356;10.704;2022-10-16T02:17:12;12.90;99.90
13742;DHT22;8461;52.356;10.704;2022-10-16T02:19:38;12.90;99.90
13742;DHT22;8461;52.356;10.704;2022-10-16T02:22:05;13.00;99.90
13742;DHT22;8461;52.356;10.704;2022-10-16T02:24:53;12.90;99.90
13742;DHT22;8461;52.356;10.704;2022-10-16T02:27:40;12.90;99.90
13742;DHT22;8461;52.356;10.704;2022-10-16T02:30:12;12.90;99.90
13742;DHT22;8461;52.356;10.704;2022-10-16T02:32:40;12.90;99.90
13742;DHT22;8461;52.356;10.704;2022-10-16T02:35:08;12.90;99.90
13742;DHT22;8461;52.356;10.704;2022-10-16T02:37:34;12.90;99.90
13742;DHT22;8461;52.356;10.704;2022-10-16T02:40:01;12.90;99.90
13742;DHT22;8461;52.356;10.704;2022-10-16T02:42:35;12.80;99.90
13742;DHT22;8461;52.356;10.704;2022-10-16T02:45:01;12.90;99.90
13742;DHT22;8461;52.356;10.704;2022-10-16T02:47:27;13.00;99.90
13742;DHT22;8461;52.356;10.704;2022-10-16T02:49:52;13.00;99.90
13742;DHT22;8461;52.356;10.704;2022-10-16T02:52:18;13.00;99.90
13742;DHT22;8461;52.356;10.704;2022-10-16T02:54:43;13.10;99.90
13742;DHT22;8461;52.356;10.704;2022-10-16T02:57:09;13.00;99.90
13742;DHT22;8461;52.356;10.704;2022-10-16T02:59:34;13.10;99.90
13742;DHT22;8461;52.356;10.704;2022-10-16T03:02:00;13.10;99.90
13742;DHT22;8461;52.356;10.704;2022-10-16T03:04:25;13.10;99.90
13742;DHT22;8461;52.356;10.704;2022-10-16T03:06:51;13.10;99.90
13742;DHT22;8461;52.356;10.704;2022-10-16T03:09:16;13.10;99.90
13742;DHT22;8461;52.356;10.704;2022-10-16T03:11:42;13.10;99.90
13742;DHT22;8461;52.356;10.704;2022-10-16T03:14:07;13.10;99.90
13742;DHT22;8461;52.356;10.704;2022-10-16T03:16:33;13.00;99.90
13742;DHT22;8461;52.356;10.704;2022-10-16T03:18:58;12.90;99.90
13742;DHT22;8461;52.356;10.704;2022-10-16T03:21:24;12.90;99.90
13742;DHT22;8461;52.356;10.704;2022-10-16T03:23:50;12.90;99.90
13742;DHT22;8461;52.356;10.704;2022-10-16T03:26:15;12.80;99.90
13742;DHT22;8461;52.356;10.704;2022-10-16T03:28:41;12.70;99.90
13742;DHT22;8461;52.356;10.704;2022-10-16T03:31:06;12.60;99.90
13742;DHT22;8461;52.356;10.704;2022-10-16T03:33:32;12.50;99.90
13742;DHT22;8461;52.356;10.704;2022-10-16T03:35:58;12.50;99.90
13742;DHT22;8461;52.356;10.704;2022-10-16T03:38:23;12.50;99.90
13742;DHT22;8461;52.356;10.704;2022-10-16T03:40:49;12.40;99.90
13742;DHT22;8461;52.356;10.704;2022-10-16T03:43:15;12.40;99.90
13742;DHT22;8461;52.356;10.704;2022-10-16T03:45:40;12.40;99.90
13742;DHT22;8461;52.356;10.704;2022-10-16T03:48:06;12.40;99.90
13742;DHT22;8461;52.356;10.704;2022-10-16T03:50:31;12.40;99.90
13742;DHT22;8461;52.356;10.704;2022-10-16T03:52:57;12.40;99.90
13742;DHT22;8461;52.356;10.704;2022-10-16T03:55:22;12.30;99.90
13742;DHT22;8461;52.356;10.704;2022-10-16T03:57:48;12.30;99.90
13742;DHT22;8461;52.356;10.704;2022-10-16T04:00:13;12.30;99.90
13742;DHT22;8461;52.356;10.704;2022-10-16T04:02:39;12.30;99.90
13742;DHT22;8461;52.356;10.704;2022-10-16T04:05:05;12.20;99.90
13742;DHT22;8461;52.356;10.704;2022-10-16T04:07:31;12.30;99.90
13742;DHT22;8461;52.356;10.704;2022-10-16T04:09:56;12.20;99.90
13742;DHT22;8461;52.356;10.704;2022-10-16T04:12:24;12.20;99.90
13742;DHT22;8461;52.356;10.704;2022-10-16T04:14:49;12.20;99.90
13742;DHT22;8461;52.356;10.704;2022-10-16T04:17:15;12.20;99.90
13742;DHT22;8461;52.356;10.704;2022-10-16T04:19:40;12.10;99.90
13742;DHT22;8461;52.356;10.704;2022-10-16T04:22:06;12.10;99.90
13742;DHT22;8461;52.356;10.704;2022-10-16T04:24:31;12.10;99.90
13742;DHT22;8461;52.356;10.704;2022-10-16T04:26:57;12.10;99.90
13742;DHT22;8461;52.356;10.704;2022-10-16T04:29:22;12.00;99.90
13742;DHT22;8461;52.356;10.704;2022-10-16T04:31:48;12.00;99.90
13742;DHT22;8461;52.356;10.704;2022-10-16T04:34:13;11.90;99.90
13742;DHT22;8461;52.356;10.704;2022-10-16T04:36:39;11.80;99.90
13742;DHT22;8461;52.356;10.704;2022-10-16T04:39:04;11.90;99.90
13742;DHT22;8461;52.356;10.704;2022-10-16T04:41:30;11.90;99.90
13742;DHT22;8461;52.356;10.704;2022-10-16T04:43:55;11.90;99.90
13742;DHT22;8461;52.356;10.704;2022-10-16T04:46:21;11.90;99.90
13742;DHT22;8461;52.356;10.704;2022-10-16T04:48:46;11.80;99.90
13742;DHT22;8461;52.356;10.704;2022-10-16T04:51:12;11.80;99.90
13742;DHT22;8461;52.356;10.704;2022-10-16T04:53:38;11.80;99.90
13742;DHT22;8461;52.356;10.704;2022-10-16T04:56:03;11.70;99.90
13742;DHT22;8461;52.356;10.704;2022-10-16T04:58:29;11.70;99.90
13742;DHT22;8461;52.356;10.704;2022-10-16T05:00:55;11.70;99.90
13742;DHT22;8461;52.356;10.704;2022-10-16T05:03:20;11.70;99.90
13742;DHT22;8461;52.356;10.704;2022-10-16T05:05:46;11.60;99.90
13742;DHT22;8461;52.356;10.704;2022-10-16T05:08:13;11.60;99.90
13742;DHT22;8461;52.356;10.704;2022-10-16T05:10:41;11.60;99.90
13742;DHT22;8461;52.356;10.704;2022-10-16T05:13:07;11.60;99.90
13742;DHT22;8461;52.356;10.704;2022-10-16T05:15:33;11.60;99.90
13742;DHT22;8461;52.356;10.704;2022-10-16T05:17:58;11.60;99.90
13742;DHT22;8461;52.356;10.704;2022-10-16T05:20:24;11.70;99.90
13742;DHT22;8461;52.356;10.704;2022-10-16T05:22:49;11.70;99.90
13742;DHT22;8461;52.356;10.704;2022-10-16T05:25:15;11.70;99.90
13742;DHT22;8461;52.356;10.704;2022-10-16T05:27:40;11.60;99.90
13742;DHT22;8461;52.356;10.704;2022-10-16T05:30:07;11.60;99.90
13742;DHT22;8461;52.356;10.704;2022-10-16T05:32:33;11.60;99.90
13742;DHT22;8461;52.356;10.704;2022-10-16T05:34:58;11.60;99.90
13742;DHT22;8461;52.356;10.704;2022-10-16T05:37:25;11.50;99.90
13742;DHT22;8461;52.356;10.704;2022-10-16T05:39:51;11.60;99.90
13742;DHT22;8461;52.356;10.704;2022-10-16T05:42:16;11.60;99.90
13742;DHT22;8461;52.356;10.704;2022-10-16T05:44:42;11.60;99.90
13742;DHT22;8461;52.356;10.704;2022-10-16T05:47:07;11.60;99.90
13742;DHT22;8461;52.356;10.704;2022-10-16T05:49:33;11.60;99.90
13742;DHT22;8461;52.356;10.704;2022-10-16T05:51:58;11.60;99.90
13742;DHT22;8461;52.356;10.704;2022-10-16T05:54:24;11.50;99.90
13742;DHT22;8461;52.356;10.704;2022-10-16T05:56:49;11.50;99.90
13742;DHT22;8461;52.356;10.704;2022-10-16T05:59:15;11.50;99.90
13742;DHT22;8461;52.356;10.704;2022-10-16T06:01:41;11.50;99.90
13742;DHT22;8461;52.356;10.704;2022-10-16T06:04:06;11.50;99.90
13742;DHT22;8461;52.356;10.704;2022-10-16T06:06:32;11.50;99.90
13742;DHT22;8461;52.356;10.704;2022-10-16T06:08:57;11.50;99.90
13742;DHT22;8461;52.356;10.704;2022-10-16T06:11:26;11.50;99.90
13742;DHT22;8461;52.356;10.704;2022-10-16T06:13:56;11.50;99.90
13742;DHT22;8461;52.356;10.704;2022-10-16T06:16:23;11.50;99.90
13742;DHT22;8461;52.356;10.704;2022-10-16T06:18:50;11.50;99.90
13742;DHT22;8461;52.356;10.704;2022-10-16T06:21:18;11.40;99.90
13742;DHT22;8461;52.356;10.704;2022-10-16T06:23:44;11.50;99.90
13742;DHT22;8461;52.356;10.704;2022-10-16T06:26:16;11.50;99.90
13742;DHT22;8461;52.356;10.704;2022-10-16T06:28:42;11.50;99.90
13742;DHT22;8461;52.356;10.704;2022-10-16T06:31:09;11.60;99.90
13742;DHT22;8461;52.356;10.704;2022-10-16T06:33:36;11.60;99.90
13742;DHT22;8461;52.356;10.704;2022-10-16T06:36:06;11.60;99.90
13742;DHT22;8461;52.356;10.704;2022-10-16T06:38:33;11.70;99.90
13742;DHT22;8461;52.356;10.704;2022-10-16T06:40:59;11.70;99.90
13742;DHT22;8461;52.356;10.704;2022-10-16T06:43:25;11.80;99.90
13742;DHT22;8461;52.356;10.704;2022-10-16T06:45:55;11.90;99.90
13742;DHT22;8461;52.356;10.704;2022-10-16T06:48:23;11.90;99.90
13742;DHT22;8461;52.356;10.704;2022-10-16T06:51:19;12.00;99.90
13742;DHT22;8461;52.356;10.704;2022-10-16T06:53:47;12.00;99.90
13742;DHT22;8461;52.356;10.704;2022-10-16T06:56:25;11.90;99.90
13742;DHT22;8461;52.356;10.704;2022-10-16T06:58:52;11.90;99.90
13742;DHT22;8461;52.356;10.704;2022-10-16T07:01:20;12.00;99.90
13742;DHT22;8461;52.356;10.704;2022-10-16T07:03:47;12.20;99.90
13742;DHT22;8461;52.356;10.704;2022-10-16T07:06:15;12.20;99.90
13742;DHT22;8461;52.356;10.704;2022-10-16T07:08:43;12.30;99.90
13742;DHT22;8461;52.356;10.704;2022-10-16T07:11:10;12.40;99.90
13742;DHT22;8461;52.356;10.704;2022-10-16T07:13:38;12.50;99.90
13742;DHT22;8461;52.356;10.704;2022-10-16T07:16:08;12.60;99.90
13742;DHT22;8461;52.356;10.704;2022-10-16T07:18:34;12.70;99.90
13742;DHT22;8461;52.356;10.704;2022-10-16T07:21:04;12.80;99.90
13742;DHT22;8461;52.356;10.704;2022-10-16T07:23:30;12.90;99.90
13742;DHT22;8461;52.356;10.704;2022-10-16T07:25:55;13.10;99.90
13742;DHT22;8461;52.356;10.704;2022-10-16T07:28:21;13.20;99.90
13742;DHT22;8461;52.356;10.704;2022-10-16T07:30:47;13.40;99.90
13742;DHT22;8461;52.356;10.704;2022-10-16T07:33:13;13.60;99.90
13742;DHT22;8461;52.356;10.704;2022-10-16T07:35:50;13.70;99.90
13742;DHT22;8461;52.356;10.704;2022-10-16T07:38:16;13.80;99.90
13742;DHT22;8461;52.356;10.704;2022-10-16T07:40:42;13.90;99.90
13742;DHT22;8461;52.356;10.704;2022-10-16T07:43:07;13.90;99.90
13742;DHT22;8461;52.356;10.704;2022-10-16T07:45:33;14.00;99.90
13742;DHT22;8461;52.356;10.704;2022-10-16T07:47:58;14.10;99.90
13742;DHT22;8461;52.356;10.704;2022-10-16T07:50:24;14.30;99.90
13742;DHT22;8461;52.356;10.704;2022-10-16T07:52:49;14.40;99.90
13742;DHT22;8461;52.356;10.704;2022-10-16T07:55:15;14.60;99.90
13742;DHT22;8461;52.356;10.704;2022-10-16T07:57:40;14.80;99.90
13742;DHT22;8461;52.356;10.704;2022-10-16T08:00:06;14.90;99.90
13742;DHT22;8461;52.356;10.704;2022-10-16T08:02:32;15.00;99.90
13742;DHT22;8461;52.356;10.704;2022-10-16T08:04:57;15.20;99.90
13742;DHT22;8461;52.356;10.704;2022-10-16T08:07:23;15.20;99.90
13742;DHT22;8461;52.356;10.704;2022-10-16T08:09:49;15.30;99.90
13742;DHT22;8461;52.356;10.704;2022-10-16T08:12:16;15.40;99.90
13742;DHT22;8461;52.356;10.704;2022-10-16T08:14:42;15.50;99.90
13742;DHT22;8461;52.356;10.704;2022-10-16T08:17:07;15.60;99.90
13742;DHT22;8461;52.356;10.704;2022-10-16T08:19:33;15.60;99.90
13742;DHT22;8461;52.356;10.704;2022-10-16T08:22:00;15.60;99.90
13742;DHT22;8461;52.356;10.704;2022-10-16T08:24:26;15.60;99.90
13742;DHT22;8461;52.356;10.704;2022-10-16T08:26:53;15.70;99.90
13742;DHT22;8461;52.356;10.704;2022-10-16T08:29:19;15.80;99.90
13742;DHT22;8461;52.356;10.704;2022-10-16T08:31:45;15.80;99.90
13742;DHT22;8461;52.356;10.704;2022-10-16T08:34:10;15.80;99.90
13742;DHT22;8461;52.356;10.704;2022-10-16T08:36:36;15.90;99.90
13742;DHT22;8461;52.356;10.704;2022-10-16T08:39:01;16.00;99.90
13742;DHT22;8461;52.356;10.704;2022-10-16T08:50:02;16.40;99.90
13742;DHT22;8461;52.356;10.704;2022-10-16T08:52:34;16.50;99.90
13742;DHT22;8461;52.356;10.704;2022-10-16T08:55:01;16.50;99.90
13742;DHT22;8461;52.356;10.704;2022-10-16T08:57:27;16.40;99.90
13742;DHT22;8461;52.356;10.704;2022-10-16T08:59:53;16.30;99.90
13742;DHT22;8461;52.356;10.704;2022-10-16T09:02:39;16.30;99.90
13742;DHT22;8461;52.356;10.704;2022-10-16T09:08:09;16.40;99.90
13742;DHT22;8461;52.356;10.704;2022-10-16T09:16:12;16.40;99.90
13742;DHT22;8461;52.356;10.704;2022-10-16T09:18:54;16.60;99.90
13742;DHT22;8461;52.356;10.704;2022-10-16T09:21:30;16.80;99.90
13742;DHT22;8461;52.356;10.704;2022-10-16T09:24:14;16.90;99.90
13742;DHT22;8461;52.356;10.704;2022-10-16T09:26:42;17.00;99.90
13742;DHT22;8461;52.356;10.704;2022-10-16T09:29:19;17.20;99.90
13742;DHT22;8461;52.356;10.704;2022-10-16T09:31:46;17.30;99.90
13742;DHT22;8461;52.356;10.704;2022-10-16T09:34:32;17.40;99.90
13742;DHT22;8461;52.356;10.704;2022-10-16T09:36:59;17.30;99.90
13742;DHT22;8461;52.356;10.704;2022-10-16T09:39:28;17.20;99.90
13742;DHT22;8461;52.356;10.704;2022-10-16T09:41:55;17.10;99.90
13742;DHT22;8461;52.356;10.704;2022-10-16T09:44:29;17.10;99.90
13742;DHT22;8461;52.356;10.704;2022-10-16T09:47:05;17.20;99.90
13742;DHT22;8461;52.356;10.704;2022-10-16T09:49:31;17.30;99.90
13742;DHT22;8461;52.356;10.704;2022-10-16T09:52:18;17.40;99.90
13742;DHT22;8461;52.356;10.704;2022-10-16T09:54:52;17.50;99.90
13742;DHT22;8461;52.356;10.704;2022-10-16T09:57:18;17.60;99.90
13742;DHT22;8461;52.356;10.704;2022-10-16T09:59:52;17.50;99.90
13742;DHT22;8461;52.356;10.704;2022-10-16T10:02:30;17.60;99.90
13742;DHT22;8461;52.356;10.704;2022-10-16T10:04:57;17.50;99.90
13742;DHT22;8461;52.356;10.704;2022-10-16T10:07:30;17.50;99.90
13742;DHT22;8461;52.356;10.704;2022-10-16T10:09:59;17.50;99.90
13742;DHT22;8461;52.356;10.704;2022-10-16T10:12:28;17.50;99.90
13742;DHT22;8461;52.356;10.704;2022-10-16T10:14:57;17.60;99.90
13742;DHT22;8461;52.356;10.704;2022-10-16T10:17:27;17.70;99.90
13742;DHT22;8461;52.356;10.704;2022-10-16T10:20:00;17.90;99.90
13742;DHT22;8461;52.356;10.704;2022-10-16T10:22:32;17.90;99.90
13742;DHT22;8461;52.356;10.704;2022-10-16T10:30:24;18.00;99.90
13742;DHT22;8461;52.356;10.704;2022-10-16T10:33:15;18.20;99.90
13742;DHT22;8461;52.356;10.704;2022-10-16T10:38:30;18.70;99.90
13742;DHT22;8461;52.356;10.704;2022-10-16T10:43:47;18.70;99.90
13742;DHT22;8461;52.356;10.704;2022-10-16T10:46:44;18.70;99.90
13742;DHT22;8461;52.356;10.704;2022-10-16T10:57:56;18.90;99.90
13742;DHT22;8461;52.356;10.704;2022-10-16T11:00:31;18.70;99.90
13742;DHT22;8461;52.356;10.704;2022-10-16T11:05:45;18.60;99.90
13742;DHT22;8461;52.356;10.704;2022-10-16T11:08:18;18.50;99.90
13742;DHT22;8461;52.356;10.704;2022-10-16T11:10:53;18.40;99.90
13742;DHT22;8461;52.356;10.704;2022-10-16T11:13:25;18.50;99.90
13742;DHT22;8461;52.356;10.704;2022-10-16T11:15:54;18.20;99.90
13742;DHT22;8461;52.356;10.704;2022-10-16T11:18:46;18.20;99.90
13742;DHT22;8461;52.356;10.704;2022-10-16T11:21:18;18.40;99.90
13742;DHT22;8461;52.356;10.704;2022-10-16T11:24:00;18.60;99.90
13742;DHT22;8461;52.356;10.704;2022-10-16T11:26:30;19.00;99.90
13742;DHT22;8461;52.356;10.704;2022-10-16T11:28:58;19.10;99.90
13742;DHT22;8461;52.356;10.704;2022-10-16T11:31:42;19.10;99.90
13742;DHT22;8461;52.356;10.704;2022-10-16T11:37:05;18.70;99.90
13742;DHT22;8461;52.356;10.704;2022-10-16T11:39:34;18.90;99.90
13742;DHT22;8461;52.356;10.704;2022-10-16T11:42:11;19.00;99.90
13742;DHT22;8461;52.356;10.704;2022-10-16T11:47:41;19.10;99.90
13742;DHT22;8461;52.356;10.704;2022-10-16T11:53:13;19.40;99.90
13742;DHT22;8461;52.356;10.704;2022-10-16T11:55:42;19.60;99.90
13742;DHT22;8461;52.356;10.704;2022-10-16T11:58:31;19.70;99.90
13742;DHT22;8461;52.356;10.704;2022-10-16T12:09:15;19.40;99.90
13742;DHT22;8461;52.356;10.704;2022-10-16T12:11:41;19.30;99.90
13742;DHT22;8461;52.356;10.704;2022-10-16T12:19:21;19.10;99.90
13742;DHT22;8461;52.356;10.704;2022-10-16T12:21:48;19.10;99.90
13742;DHT22;8461;52.356;10.704;2022-10-16T12:24:28;19.20;99.90
13742;DHT22;8461;52.356;10.704;2022-10-16T12:26:55;19.20;99.90
13742;DHT22;8461;52.356;10.704;2022-10-16T12:29:37;19.30;99.90
13742;DHT22;8461;52.356;10.704;2022-10-16T12:32:30;19.40;99.90
13742;DHT22;8461;52.356;10.704;2022-10-16T12:34:57;19.50;99.90
13742;DHT22;8461;52.356;10.704;2022-10-16T12:37:29;19.40;99.90
13742;DHT22;8461;52.356;10.704;2022-10-16T12:39:57;19.10;99.90
13742;DHT22;8461;52.356;10.704;2022-10-16T12:42:34;19.00;99.90
13742;DHT22;8461;52.356;10.704;2022-10-16T12:45:00;18.90;99.90
13742;DHT22;8461;52.356;10.704;2022-10-16T12:49:58;19.30;99.90
13742;DHT22;8461;52.356;10.704;2022-10-16T12:52:37;19.30;99.90
13742;DHT22;8461;52.356;10.704;2022-10-16T12:55:05;19.50;99.90
13742;DHT22;8461;52.356;10.704;2022-10-16T13:01:12;19.40;99.90
13742;DHT22;8461;52.356;10.704;2022-10-16T13:16:55;19.50;99.90
13742;DHT22;8461;52.356;10.704;2022-10-16T13:19:36;19.50;99.90
13742;DHT22;8461;52.356;10.704;2022-10-16T13:27:45;19.50;99.90
13742;DHT22;8461;52.356;10.704;2022-10-16T13:30:16;19.50;99.90
13742;DHT22;8461;52.356;10.704;2022-10-16T13:32:56;19.50;99.90
13742;DHT22;8461;52.356;10.704;2022-10-16T13:35:28;19.60;99.90
13742;DHT22;8461;52.356;10.704;2022-10-16T13:40:35;19.60;99.90
13742;DHT22;8461;52.356;10.704;2022-10-16T13:43:01;19.60;99.90
13742;DHT22;8461;52.356;10.704;2022-10-16T13:45:27;19.50;99.90
13742;DHT22;8461;52.356;10.704;2022-10-16T13:48:03;19.50;99.90
13742;DHT22;8461;52.356;10.704;2022-10-16T13:50:29;19.50;99.90
13742;DHT22;8461;52.356;10.704;2022-10-16T13:53:13;19.50;99.90
13742;DHT22;8461;52.356;10.704;2022-10-16T13:55:38;19.50;99.90
13742;DHT22;8461;52.356;10.704;2022-10-16T13:58:07;19.40;99.90
13742;DHT22;8461;52.356;10.704;2022-10-16T14:00:33;19.40;99.90
13742;DHT22;8461;52.356;10.704;2022-10-16T14:03:02;19.30;99.90
13742;DHT22;8461;52.356;10.704;2022-10-16T14:05:28;19.20;99.90
13742;DHT22;8461;52.356;10.704;2022-10-16T14:07:54;19.20;99.90
13742;DHT22;8461;52.356;10.704;2022-10-16T14:10:32;19.30;99.90
13742;DHT22;8461;52.356;10.704;2022-10-16T14:13:13;19.30;99.90
13742;DHT22;8461;52.356;10.704;2022-10-16T14:15:40;19.40;99.90
13742;DHT22;8461;52.356;10.704;2022-10-16T14:18:20;19.40;99.90
13742;DHT22;8461;52.356;10.704;2022-10-16T14:20:46;19.30;99.90
13742;DHT22;8461;52.356;10.704;2022-10-16T14:23:30;19.30;99.90
13742;DHT22;8461;52.356;10.704;2022-10-16T14:28:33;19.10;99.90
13742;DHT22;8461;52.356;10.704;2022-10-16T14:31:01;19.00;99.90
13742;DHT22;8461;52.356;10.704;2022-10-16T14:38:43;19.00;99.90
13742;DHT22;8461;52.356;10.704;2022-10-16T14:41:13;18.90;99.90
13742;DHT22;8461;52.356;10.704;2022-10-16T14:43:41;19.00;99.90
13742;DHT22;8461;52.356;10.704;2022-10-16T14:46:15;18.90;99.90
13742;DHT22;8461;52.356;10.704;2022-10-16T14:48:50;18.90;99.90
13742;DHT22;8461;52.356;10.704;2022-10-16T14:51:18;18.80;99.90
13742;DHT22;8461;52.356;10.704;2022-10-16T14:53:44;18.70;99.90
13742;DHT22;8461;52.356;10.704;2022-10-16T14:56:19;18.70;99.90
13742;DHT22;8461;52.356;10.704;2022-10-16T14:58:45;18.70;99.90
13742;DHT22;8461;52.356;10.704;2022-10-16T15:01:11;18.60;99.90
13742;DHT22;8461;52.356;10.704;2022-10-16T15:03:37;18.50;99.90
13742;DHT22;8461;52.356;10.704;2022-10-16T15:06:03;18.40;99.90
13742;DHT22;8461;52.356;10.704;2022-10-16T15:08:29;18.30;99.90
13742;DHT22;8461;52.356;10.704;2022-10-16T15:10:54;18.30;99.90
13742;DHT22;8461;52.356;10.704;2022-10-16T15:13:20;18.20;99.90
13742;DHT22;8461;52.356;10.704;2022-10-16T15:15:47;18.10;99.90
13742;DHT22;8461;52.356;10.704;2022-10-16T15:18:14;18.00;99.90
13742;DHT22;8461;52.356;10.704;2022-10-16T15:20:45;18.00;99.90
13742;DHT22;8461;52.356;10.704;2022-10-16T15:23:15;17.90;99.90
13742;DHT22;8461;52.356;10.704;2022-10-16T15:25:44;17.80;99.90
13742;DHT22;8461;52.356;10.704;2022-10-16T15:28:11;17.70;99.90
13742;DHT22;8461;52.356;10.704;2022-10-16T15:30:38;17.70;99.90
13742;DHT22;8461;52.356;10.704;2022-10-16T15:33:04;17.60;99.90
13742;DHT22;8461;52.356;10.704;2022-10-16T15:35:30;17.60;99.90
13742;DHT22;8461;52.356;10.704;2022-10-16T15:37:57;17.60;99.90
13742;DHT22;8461;52.356;10.704;2022-10-16T15:40:23;17.50;99.90
13742;DHT22;8461;52.356;10.704;2022-10-16T15:42:49;17.40;99.90
13742;DHT22;8461;52.356;10.704;2022-10-16T15:45:15;17.20;99.90
13742;DHT22;8461;52.356;10.704;2022-10-16T15:47:41;17.10;99.90
13742;DHT22;8461;52.356;10.704;2022-10-16T15:50:10;17.10;99.90
13742;DHT22;8461;52.356;10.704;2022-10-16T15:52:36;17.00;99.90
13742;DHT22;8461;52.356;10.704;2022-10-16T15:55:05;16.90;99.90
13742;DHT22;8461;52.356;10.704;2022-10-16T15:57:31;16.80;99.90
13742;DHT22;8461;52.356;10.704;2022-10-16T15:59:56;16.70;99.90
13742;DHT22;8461;52.356;10.704;2022-10-16T16:02:22;16.70;99.90
13742;DHT22;8461;52.356;10.704;2022-10-16T16:04:47;16.50;99.90
13742;DHT22;8461;52.356;10.704;2022-10-16T16:07:13;16.40;99.90
13742;DHT22;8461;52.356;10.704;2022-10-16T16:09:38;16.30;99.90
13742;DHT22;8461;52.356;10.704;2022-10-16T16:12:04;16.30;99.90
13742;DHT22;8461;52.356;10.704;2022-10-16T16:14:30;16.20;99.90
13742;DHT22;8461;52.356;10.704;2022-10-16T16:16:55;16.00;99.90
13742;DHT22;8461;52.356;10.704;2022-10-16T16:19:21;16.00;99.90
13742;DHT22;8461;52.356;10.704;2022-10-16T16:21:50;15.90;99.90
13742;DHT22;8461;52.356;10.704;2022-10-16T16:24:16;15.90;99.90
13742;DHT22;8461;52.356;10.704;2022-10-16T16:26:41;15.70;99.90
13742;DHT22;8461;52.356;10.704;2022-10-16T16:29:11;15.60;99.90
13742;DHT22;8461;52.356;10.704;2022-10-16T16:31:38;15.50;99.90
13742;DHT22;8461;52.356;10.704;2022-10-16T16:34:04;15.30;99.90
13742;DHT22;8461;52.356;10.704;2022-10-16T16:36:31;15.30;99.90
13742;DHT22;8461;52.356;10.704;2022-10-16T16:38:57;15.10;99.90
13742;DHT22;8461;52.356;10.704;2022-10-16T16:41:27;15.10;99.90
13742;DHT22;8461;52.356;10.704;2022-10-16T16:43:54;15.00;99.90
13742;DHT22;8461;52.356;10.704;2022-10-16T16:46:21;15.00;99.90
13742;DHT22;8461;52.356;10.704;2022-10-16T16:48:47;14.90;99.90
13742;DHT22;8461;52.356;10.704;2022-10-16T16:51:16;14.70;99.90
13742;DHT22;8461;52.356;10.704;2022-10-16T16:53:51;14.50;99.90
13742;DHT22;8461;52.356;10.704;2022-10-16T16:56:18;14.40;99.90
13742;DHT22;8461;52.356;10.704;2022-10-16T16:58:48;14.30;99.90
13742;DHT22;8461;52.356;10.704;2022-10-16T17:01:13;14.20;99.90
13742;DHT22;8461;52.356;10.704;2022-10-16T17:03:42;14.10;99.90
13742;DHT22;8461;52.356;10.704;2022-10-16T17:06:10;14.00;99.90
13742;DHT22;8461;52.356;10.704;2022-10-16T17:08:37;13.90;99.90
13742;DHT22;8461;52.356;10.704;2022-10-16T17:11:03;13.90;99.90
13742;DHT22;8461;52.356;10.704;2022-10-16T17:13:31;13.90;99.90
13742;DHT22;8461;52.356;10.704;2022-10-16T17:16:00;13.80;99.90
13742;DHT22;8461;52.356;10.704;2022-10-16T17:18:25;13.70;99.90